sensor_id;sensor_type;location;lat;lon;timestamp;P1;durP1;ratioP1;P2;durP2;ratioP2
11514;SDS011;5814;41.936;25.556;2024-03-25T00:01:41;10.07;;;9.27;;
11514;SDS011;5814;41.936;25.556;2024-03-25T00:04:07;9.40;;;8.70;;
11514;SDS011;5814;41.936;25.556;2024-03-25T00:06:33;9.48;;;8.88;;
11514;SDS011;5814;41.936;25.556;2024-03-25T00:09:00;8.32;;;7.70;;
11514;SDS011;5814;41.936;25.556;2024-03-25T00:11:26;8.70;;;8.10;;
11514;SDS011;5814;41.936;25.556;2024-03-25T00:13:52;8.77;;;8.18;;
11514;SDS011;5814;41.936;25.556;2024-03-25T00:16:17;9.20;;;8.60;;
11514;SDS011;5814;41.936;25.556;2024-03-25T00:18:43;8.85;;;8.25;;
11514;SDS011;5814;41.936;25.556;2024-03-25T00:21:08;9.10;;;8.45;;
11514;SDS011;5814;41.936;25.556;2024-03-25T00:23:33;8.35;;;7.93;;
11514;SDS011;5814;41.936;25.556;2024-03-25T00:25:59;8.77;;;8.18;;
11514;SDS011;5814;41.936;25.556;2024-03-25T00:28:24;8.57;;;8.00;;
11514;SDS011;5814;41.936;25.556;2024-03-25T00:30:50;8.48;;;7.85;;
11514;SDS011;5814;41.936;25.556;2024-03-25T00:33:15;9.20;;;8.60;;
11514;SDS011;5814;41.936;25.556;2024-03-25T00:35:42;8.98;;;8.38;;
11514;SDS011;5814;41.936;25.556;2024-03-25T00:38:08;8.77;;;8.18;;
11514;SDS011;5814;41.936;25.556;2024-03-25T00:40:34;8.38;;;7.72;;
11514;SDS011;5814;41.936;25.556;2024-03-25T00:42:59;8.48;;;7.95;;
11514;SDS011;5814;41.936;25.556;2024-03-25T00:45:25;8.70;;;8.20;;
11514;SDS011;5814;41.936;25.556;2024-03-25T00:47:55;9.07;;;8.48;;
11514;SDS011;5814;41.936;25.556;2024-03-25T00:50:25;9.27;;;8.57;;
11514;SDS011;5814;41.936;25.556;2024-03-25T00:52:51;9.45;;;8.90;;
11514;SDS011;5814;41.936;25.556;2024-03-25T00:55:17;9.80;;;9.10;;
11514;SDS011;5814;41.936;25.556;2024-03-25T00:57:43;8.98;;;8.48;;
11514;SDS011;5814;41.936;25.556;2024-03-25T01:00:09;9.65;;;8.95;;
11514;SDS011;5814;41.936;25.556;2024-03-25T01:02:35;9.13;;;8.63;;
11514;SDS011;5814;41.936;25.556;2024-03-25T01:05:00;9.73;;;9.07;;
11514;SDS011;5814;41.936;25.556;2024-03-25T01:07:26;8.77;;;8.27;;
11514;SDS011;5814;41.936;25.556;2024-03-25T01:09:51;9.00;;;8.50;;
11514;SDS011;5814;41.936;25.556;2024-03-25T01:12:16;9.50;;;8.60;;
11514;SDS011;5814;41.936;25.556;2024-03-25T01:14:42;8.50;;;8.07;;
11514;SDS011;5814;41.936;25.556;2024-03-25T01:17:08;8.67;;;8.00;;
11514;SDS011;5814;41.936;25.556;2024-03-25T01:19:33;9.05;;;8.45;;
11514;SDS011;5814;41.936;25.556;2024-03-25T01:21:59;9.27;;;8.57;;
11514;SDS011;5814;41.936;25.556;2024-03-25T01:24:24;9.15;;;8.55;;
11514;SDS011;5814;41.936;25.556;2024-03-25T01:26:50;8.73;;;8.05;;
11514;SDS011;5814;41.936;25.556;2024-03-25T01:29:16;8.97;;;8.37;;
11514;SDS011;5814;41.936;25.556;2024-03-25T01:31:42;8.18;;;7.68;;
11514;SDS011;5814;41.936;25.556;2024-03-25T01:34:07;8.40;;;7.90;;
11514;SDS011;5814;41.936;25.556;2024-03-25T01:36:33;8.38;;;7.88;;
11514;SDS011;5814;41.936;25.556;2024-03-25T01:39:00;8.25;;;7.75;;
11514;SDS011;5814;41.936;25.556;2024-03-25T01:41:25;7.93;;;7.53;;
11514;SDS011;5814;41.936;25.556;2024-03-25T01:43:51;8.82;;;8.20;;
11514;SDS011;5814;41.936;25.556;2024-03-25T01:46:17;8.13;;;7.53;;
11514;SDS011;5814;41.936;25.556;2024-03-25T01:48:47;8.38;;;7.72;;
11514;SDS011;5814;41.936;25.556;2024-03-25T01:51:15;8.32;;;7.75;;
11514;SDS011;5814;41.936;25.556;2024-03-25T01:53:43;7.90;;;7.40;;
11514;SDS011;5814;41.936;25.556;2024-03-25T01:56:10;8.35;;;7.85;;
11514;SDS011;5814;41.936;25.556;2024-03-25T01:58:38;8.07;;;7.47;;
11514;SDS011;5814;41.936;25.556;2024-03-25T02:01:04;7.82;;;7.22;;
11514;SDS011;5814;41.936;25.556;2024-03-25T02:03:31;7.85;;;7.28;;
11514;SDS011;5814;41.936;25.556;2024-03-25T02:06:01;8.07;;;7.57;;
11514;SDS011;5814;41.936;25.556;2024-03-25T02:08:30;8.27;;;7.68;;
11514;SDS011;5814;41.936;25.556;2024-03-25T02:10:56;7.82;;;7.32;;
11514;SDS011;5814;41.936;25.556;2024-03-25T02:13:23;8.18;;;7.68;;
11514;SDS011;5814;41.936;25.556;2024-03-25T02:15:49;7.93;;;7.25;;
11514;SDS011;5814;41.936;25.556;2024-03-25T02:18:19;8.10;;;7.43;;
11514;SDS011;5814;41.936;25.556;2024-03-25T02:20:45;7.78;;;7.13;;
11514;SDS011;5814;41.936;25.556;2024-03-25T02:23:11;7.88;;;7.32;;
11514;SDS011;5814;41.936;25.556;2024-03-25T02:25:38;7.85;;;7.35;;
11514;SDS011;5814;41.936;25.556;2024-03-25T02:28:04;8.68;;;8.07;;
11514;SDS011;5814;41.936;25.556;2024-03-25T02:30:30;9.77;;;8.95;;
11514;SDS011;5814;41.936;25.556;2024-03-25T02:32:55;9.45;;;8.85;;
11514;SDS011;5814;41.936;25.556;2024-03-25T02:35:21;11.43;;;10.52;;
11514;SDS011;5814;41.936;25.556;2024-03-25T02:37:50;10.97;;;10.17;;
11514;SDS011;5814;41.936;25.556;2024-03-25T02:40:16;10.77;;;10.07;;
11514;SDS011;5814;41.936;25.556;2024-03-25T02:42:43;11.83;;;11.13;;
11514;SDS011;5814;41.936;25.556;2024-03-25T02:45:09;12.17;;;11.17;;
11514;SDS011;5814;41.936;25.556;2024-03-25T02:47:35;11.07;;;10.37;;
11514;SDS011;5814;41.936;25.556;2024-03-25T02:50:01;11.20;;;10.50;;
11514;SDS011;5814;41.936;25.556;2024-03-25T02:52:26;12.47;;;11.57;;
11514;SDS011;5814;41.936;25.556;2024-03-25T02:54:52;12.37;;;11.67;;
11514;SDS011;5814;41.936;25.556;2024-03-25T02:57:19;11.30;;;10.50;;
11514;SDS011;5814;41.936;25.556;2024-03-25T02:59:45;9.70;;;9.10;;
11514;SDS011;5814;41.936;25.556;2024-03-25T03:02:10;8.37;;;7.67;;
11514;SDS011;5814;41.936;25.556;2024-03-25T03:04:36;6.70;;;6.23;;
11514;SDS011;5814;41.936;25.556;2024-03-25T03:07:01;5.60;;;5.30;;
11514;SDS011;5814;41.936;25.556;2024-03-25T03:09:27;5.80;;;5.13;;
11514;SDS011;5814;41.936;25.556;2024-03-25T03:11:52;5.30;;;5.00;;
11514;SDS011;5814;41.936;25.556;2024-03-25T03:14:18;4.93;;;4.60;;
11514;SDS011;5814;41.936;25.556;2024-03-25T03:16:43;4.80;;;4.50;;
11514;SDS011;5814;41.936;25.556;2024-03-25T03:19:09;4.87;;;4.57;;
11514;SDS011;5814;41.936;25.556;2024-03-25T03:21:35;5.77;;;5.47;;
11514;SDS011;5814;41.936;25.556;2024-03-25T03:24:02;4.80;;;4.50;;
11514;SDS011;5814;41.936;25.556;2024-03-25T03:26:28;5.03;;;4.73;;
11514;SDS011;5814;41.936;25.556;2024-03-25T03:28:53;5.23;;;4.90;;
11514;SDS011;5814;41.936;25.556;2024-03-25T03:31:19;6.93;;;6.33;;
11514;SDS011;5814;41.936;25.556;2024-03-25T03:33:46;6.60;;;6.10;;
11514;SDS011;5814;41.936;25.556;2024-03-25T03:36:14;4.83;;;4.60;;
11514;SDS011;5814;41.936;25.556;2024-03-25T03:38:40;4.43;;;4.13;;
11514;SDS011;5814;41.936;25.556;2024-03-25T03:41:06;7.63;;;7.13;;
11514;SDS011;5814;41.936;25.556;2024-03-25T03:43:31;5.50;;;5.20;;
11514;SDS011;5814;41.936;25.556;2024-03-25T03:45:57;8.67;;;8.00;;
11514;SDS011;5814;41.936;25.556;2024-03-25T03:48:22;5.20;;;4.87;;
11514;SDS011;5814;41.936;25.556;2024-03-25T03:50:48;5.87;;;5.47;;
11514;SDS011;5814;41.936;25.556;2024-03-25T03:53:13;4.87;;;4.67;;
11514;SDS011;5814;41.936;25.556;2024-03-25T03:55:39;5.20;;;4.80;;
11514;SDS011;5814;41.936;25.556;2024-03-25T03:58:04;5.90;;;5.60;;
11514;SDS011;5814;41.936;25.556;2024-03-25T04:00:33;4.07;;;3.87;;
11514;SDS011;5814;41.936;25.556;2024-03-25T04:03:00;4.63;;;4.43;;
11514;SDS011;5814;41.936;25.556;2024-03-25T04:05:28;4.37;;;4.17;;
11514;SDS011;5814;41.936;25.556;2024-03-25T04:07:55;4.43;;;4.23;;
11514;SDS011;5814;41.936;25.556;2024-03-25T04:10:21;4.07;;;3.97;;
11514;SDS011;5814;41.936;25.556;2024-03-25T04:12:46;4.57;;;4.37;;
11514;SDS011;5814;41.936;25.556;2024-03-25T04:15:12;4.00;;;3.90;;
11514;SDS011;5814;41.936;25.556;2024-03-25T04:17:43;4.17;;;4.00;;
11514;SDS011;5814;41.936;25.556;2024-03-25T04:20:10;4.27;;;4.07;;
11514;SDS011;5814;41.936;25.556;2024-03-25T04:22:37;5.10;;;4.80;;
11514;SDS011;5814;41.936;25.556;2024-03-25T04:25:05;5.47;;;5.20;;
11514;SDS011;5814;41.936;25.556;2024-03-25T04:27:31;4.73;;;4.53;;
11514;SDS011;5814;41.936;25.556;2024-03-25T04:29:56;3.60;;;3.50;;
11514;SDS011;5814;41.936;25.556;2024-03-25T04:32:22;7.50;;;7.13;;
11514;SDS011;5814;41.936;25.556;2024-03-25T04:34:47;5.77;;;5.47;;
11514;SDS011;5814;41.936;25.556;2024-03-25T04:37:13;6.70;;;6.40;;
11514;SDS011;5814;41.936;25.556;2024-03-25T04:39:39;5.40;;;5.10;;
11514;SDS011;5814;41.936;25.556;2024-03-25T04:42:05;5.93;;;5.63;;
11514;SDS011;5814;41.936;25.556;2024-03-25T04:44:31;6.53;;;6.03;;
11514;SDS011;5814;41.936;25.556;2024-03-25T04:46:57;4.87;;;4.67;;
11514;SDS011;5814;41.936;25.556;2024-03-25T04:49:22;5.73;;;5.43;;
11514;SDS011;5814;41.936;25.556;2024-03-25T04:51:48;11.07;;;10.37;;
11514;SDS011;5814;41.936;25.556;2024-03-25T04:54:16;4.87;;;4.67;;
11514;SDS011;5814;41.936;25.556;2024-03-25T04:56:41;9.97;;;9.10;;
11514;SDS011;5814;41.936;25.556;2024-03-25T04:59:07;8.60;;;8.20;;
11514;SDS011;5814;41.936;25.556;2024-03-25T05:01:32;8.30;;;7.90;;
11514;SDS011;5814;41.936;25.556;2024-03-25T05:03:57;6.93;;;6.70;;
11514;SDS011;5814;41.936;25.556;2024-03-25T05:06:23;7.20;;;6.97;;
11514;SDS011;5814;41.936;25.556;2024-03-25T05:08:48;8.83;;;8.43;;
11514;SDS011;5814;41.936;25.556;2024-03-25T05:11:15;8.03;;;7.73;;
11514;SDS011;5814;41.936;25.556;2024-03-25T05:13:40;8.60;;;8.30;;
11514;SDS011;5814;41.936;25.556;2024-03-25T05:16:06;8.87;;;8.50;;
11514;SDS011;5814;41.936;25.556;2024-03-25T05:18:31;8.63;;;8.13;;
11514;SDS011;5814;41.936;25.556;2024-03-25T05:20:56;9.03;;;8.73;;
11514;SDS011;5814;41.936;25.556;2024-03-25T05:23:22;7.90;;;7.47;;
11514;SDS011;5814;41.936;25.556;2024-03-25T05:25:47;6.10;;;5.80;;
11514;SDS011;5814;41.936;25.556;2024-03-25T05:28:13;8.83;;;8.40;;
11514;SDS011;5814;41.936;25.556;2024-03-25T05:30:38;7.47;;;7.13;;
11514;SDS011;5814;41.936;25.556;2024-03-25T05:33:04;9.53;;;9.03;;
11514;SDS011;5814;41.936;25.556;2024-03-25T05:35:30;6.63;;;6.40;;
11514;SDS011;5814;41.936;25.556;2024-03-25T05:37:58;6.03;;;5.73;;
11514;SDS011;5814;41.936;25.556;2024-03-25T05:40:23;7.97;;;7.57;;
11514;SDS011;5814;41.936;25.556;2024-03-25T05:42:49;7.70;;;7.30;;
11514;SDS011;5814;41.936;25.556;2024-03-25T05:45:16;7.80;;;7.30;;
11514;SDS011;5814;41.936;25.556;2024-03-25T05:47:42;6.53;;;6.23;;
11514;SDS011;5814;41.936;25.556;2024-03-25T05:50:07;8.83;;;8.33;;
11514;SDS011;5814;41.936;25.556;2024-03-25T05:52:33;6.13;;;5.83;;
11514;SDS011;5814;41.936;25.556;2024-03-25T05:54:59;7.57;;;7.17;;
11514;SDS011;5814;41.936;25.556;2024-03-25T05:57:24;6.00;;;5.70;;
11514;SDS011;5814;41.936;25.556;2024-03-25T05:59:50;6.30;;;5.87;;
11514;SDS011;5814;41.936;25.556;2024-03-25T06:02:15;4.70;;;4.50;;
11514;SDS011;5814;41.936;25.556;2024-03-25T06:04:41;4.50;;;4.30;;
11514;SDS011;5814;41.936;25.556;2024-03-25T06:07:06;5.07;;;4.80;;
11514;SDS011;5814;41.936;25.556;2024-03-25T06:09:32;6.93;;;6.57;;
11514;SDS011;5814;41.936;25.556;2024-03-25T06:11:57;4.43;;;4.23;;
11514;SDS011;5814;41.936;25.556;2024-03-25T06:14:23;5.00;;;4.80;;
11514;SDS011;5814;41.936;25.556;2024-03-25T06:16:49;4.03;;;3.90;;
11514;SDS011;5814;41.936;25.556;2024-03-25T06:19:14;4.80;;;4.60;;
11514;SDS011;5814;41.936;25.556;2024-03-25T06:21:39;5.10;;;4.90;;
11514;SDS011;5814;41.936;25.556;2024-03-25T06:24:05;6.23;;;5.70;;
11514;SDS011;5814;41.936;25.556;2024-03-25T06:26:31;5.67;;;5.20;;
11514;SDS011;5814;41.936;25.556;2024-03-25T06:28:56;5.30;;;5.00;;
11514;SDS011;5814;41.936;25.556;2024-03-25T06:31:22;5.13;;;4.93;;
11514;SDS011;5814;41.936;25.556;2024-03-25T06:34:06;7.10;;;6.17;;
11514;SDS011;5814;41.936;25.556;2024-03-25T06:36:43;5.60;;;5.30;;
11514;SDS011;5814;41.936;25.556;2024-03-25T06:39:09;6.83;;;6.13;;
11514;SDS011;5814;41.936;25.556;2024-03-25T06:41:35;5.20;;;4.97;;
11514;SDS011;5814;41.936;25.556;2024-03-25T06:44:01;5.47;;;5.07;;
11514;SDS011;5814;41.936;25.556;2024-03-25T06:46:26;5.30;;;4.90;;
11514;SDS011;5814;41.936;25.556;2024-03-25T06:48:52;8.80;;;6.03;;
11514;SDS011;5814;41.936;25.556;2024-03-25T06:51:18;5.13;;;4.73;;
11514;SDS011;5814;41.936;25.556;2024-03-25T06:53:43;5.40;;;5.00;;
11514;SDS011;5814;41.936;25.556;2024-03-25T06:56:09;11.33;;;6.87;;
11514;SDS011;5814;41.936;25.556;2024-03-25T06:58:35;6.57;;;6.03;;
11514;SDS011;5814;41.936;25.556;2024-03-25T07:01:07;7.77;;;6.33;;
11514;SDS011;5814;41.936;25.556;2024-03-25T07:03:34;6.30;;;5.77;;
11514;SDS011;5814;41.936;25.556;2024-03-25T07:06:00;7.47;;;6.87;;
11514;SDS011;5814;41.936;25.556;2024-03-25T07:08:26;5.67;;;5.27;;
11514;SDS011;5814;41.936;25.556;2024-03-25T07:10:53;6.13;;;5.47;;
11514;SDS011;5814;41.936;25.556;2024-03-25T07:13:19;6.20;;;4.80;;
11514;SDS011;5814;41.936;25.556;2024-03-25T07:15:45;5.93;;;5.43;;
11514;SDS011;5814;41.936;25.556;2024-03-25T07:18:11;8.40;;;7.70;;
11514;SDS011;5814;41.936;25.556;2024-03-25T07:20:38;5.53;;;5.03;;
11514;SDS011;5814;41.936;25.556;2024-03-25T07:23:04;7.53;;;6.63;;
11514;SDS011;5814;41.936;25.556;2024-03-25T07:25:30;5.37;;;5.07;;
11514;SDS011;5814;41.936;25.556;2024-03-25T07:27:56;6.40;;;5.97;;
11514;SDS011;5814;41.936;25.556;2024-03-25T07:30:22;6.70;;;6.20;;
11514;SDS011;5814;41.936;25.556;2024-03-25T07:32:50;6.73;;;6.07;;
11514;SDS011;5814;41.936;25.556;2024-03-25T07:35:16;6.43;;;5.97;;
11514;SDS011;5814;41.936;25.556;2024-03-25T07:37:44;5.43;;;5.20;;
11514;SDS011;5814;41.936;25.556;2024-03-25T07:40:10;8.03;;;7.23;;
11514;SDS011;5814;41.936;25.556;2024-03-25T07:42:39;7.77;;;7.07;;
11514;SDS011;5814;41.936;25.556;2024-03-25T07:45:05;7.57;;;6.97;;
11514;SDS011;5814;41.936;25.556;2024-03-25T07:47:31;13.00;;;11.97;;
11514;SDS011;5814;41.936;25.556;2024-03-25T07:49:56;7.17;;;6.27;;
11514;SDS011;5814;41.936;25.556;2024-03-25T07:52:22;6.00;;;5.60;;
11514;SDS011;5814;41.936;25.556;2024-03-25T07:54:47;6.10;;;5.70;;
11514;SDS011;5814;41.936;25.556;2024-03-25T07:57:13;6.15;;;5.65;;
11514;SDS011;5814;41.936;25.556;2024-03-25T07:59:38;7.20;;;6.60;;
11514;SDS011;5814;41.936;25.556;2024-03-25T08:02:04;9.45;;;8.65;;
11514;SDS011;5814;41.936;25.556;2024-03-25T08:04:30;7.00;;;6.55;;
11514;SDS011;5814;41.936;25.556;2024-03-25T08:06:56;7.32;;;6.85;;
11514;SDS011;5814;41.936;25.556;2024-03-25T08:09:21;6.00;;;5.50;;
11514;SDS011;5814;41.936;25.556;2024-03-25T08:11:47;7.10;;;6.40;;
11514;SDS011;5814;41.936;25.556;2024-03-25T08:14:12;7.73;;;7.13;;
11514;SDS011;5814;41.936;25.556;2024-03-25T08:16:38;6.85;;;6.30;;
11514;SDS011;5814;41.936;25.556;2024-03-25T08:19:03;7.03;;;6.43;;
11514;SDS011;5814;41.936;25.556;2024-03-25T08:21:29;8.47;;;7.73;;
11514;SDS011;5814;41.936;25.556;2024-03-25T08:23:54;7.97;;;7.30;;
11514;SDS011;5814;41.936;25.556;2024-03-25T08:26:20;10.37;;;9.20;;
11514;SDS011;5814;41.936;25.556;2024-03-25T08:28:45;9.97;;;9.07;;
11514;SDS011;5814;41.936;25.556;2024-03-25T08:31:14;8.48;;;7.88;;
11514;SDS011;5814;41.936;25.556;2024-03-25T08:33:39;7.82;;;7.13;;
11514;SDS011;5814;41.936;25.556;2024-03-25T08:36:05;6.75;;;6.25;;
11514;SDS011;5814;41.936;25.556;2024-03-25T08:38:30;10.13;;;9.20;;
11514;SDS011;5814;41.936;25.556;2024-03-25T08:40:56;8.10;;;7.50;;
11514;SDS011;5814;41.936;25.556;2024-03-25T08:43:21;7.93;;;7.30;;
11514;SDS011;5814;41.936;25.556;2024-03-25T08:45:47;7.75;;;7.25;;
11514;SDS011;5814;41.936;25.556;2024-03-25T08:48:12;7.57;;;7.13;;
11514;SDS011;5814;41.936;25.556;2024-03-25T08:50:38;8.45;;;7.55;;
11514;SDS011;5814;41.936;25.556;2024-03-25T08:53:03;7.00;;;6.60;;
11514;SDS011;5814;41.936;25.556;2024-03-25T08:55:29;7.55;;;7.00;;
11514;SDS011;5814;41.936;25.556;2024-03-25T08:57:55;6.75;;;6.35;;
11514;SDS011;5814;41.936;25.556;2024-03-25T09:00:23;6.22;;;5.93;;
11514;SDS011;5814;41.936;25.556;2024-03-25T09:02:50;9.10;;;8.30;;
11514;SDS011;5814;41.936;25.556;2024-03-25T09:05:15;7.32;;;6.72;;
11514;SDS011;5814;41.936;25.556;2024-03-25T09:07:44;6.65;;;6.10;;
11514;SDS011;5814;41.936;25.556;2024-03-25T09:10:10;6.65;;;6.25;;
11514;SDS011;5814;41.936;25.556;2024-03-25T09:12:54;6.07;;;5.78;;
11514;SDS011;5814;41.936;25.556;2024-03-25T09:15:19;6.97;;;6.47;;
11514;SDS011;5814;41.936;25.556;2024-03-25T09:17:45;11.32;;;7.07;;
11514;SDS011;5814;41.936;25.556;2024-03-25T09:20:10;9.45;;;8.70;;
11514;SDS011;5814;41.936;25.556;2024-03-25T09:22:42;7.18;;;6.70;;
11514;SDS011;5814;41.936;25.556;2024-03-25T09:25:08;7.88;;;6.97;;
11514;SDS011;5814;41.936;25.556;2024-03-25T09:27:34;6.72;;;6.32;;
11514;SDS011;5814;41.936;25.556;2024-03-25T09:29:59;9.23;;;8.07;;
11514;SDS011;5814;41.936;25.556;2024-03-25T09:32:25;18.05;;;11.98;;
11514;SDS011;5814;41.936;25.556;2024-03-25T09:34:51;7.25;;;6.65;;
11514;SDS011;5814;41.936;25.556;2024-03-25T09:37:17;7.88;;;6.95;;
11514;SDS011;5814;41.936;25.556;2024-03-25T09:39:42;30.27;;;10.77;;
11514;SDS011;5814;41.936;25.556;2024-03-25T09:42:08;10.25;;;6.90;;
11514;SDS011;5814;41.936;25.556;2024-03-25T09:44:39;8.23;;;7.63;;
11514;SDS011;5814;41.936;25.556;2024-03-25T09:47:05;7.13;;;6.57;;
11514;SDS011;5814;41.936;25.556;2024-03-25T09:49:32;7.47;;;6.95;;
11514;SDS011;5814;41.936;25.556;2024-03-25T09:51:59;11.10;;;8.23;;
11514;SDS011;5814;41.936;25.556;2024-03-25T09:54:25;12.93;;;12.02;;
11514;SDS011;5814;41.936;25.556;2024-03-25T09:56:50;11.85;;;11.35;;
11514;SDS011;5814;41.936;25.556;2024-03-25T09:59:16;11.40;;;10.65;;
11514;SDS011;5814;41.936;25.556;2024-03-25T10:01:42;9.00;;;8.25;;
11514;SDS011;5814;41.936;25.556;2024-03-25T10:04:08;6.70;;;6.30;;
11514;SDS011;5814;41.936;25.556;2024-03-25T10:06:35;12.40;;;11.23;;
11514;SDS011;5814;41.936;25.556;2024-03-25T10:09:03;11.43;;;10.27;;
11514;SDS011;5814;41.936;25.556;2024-03-25T10:11:31;8.15;;;7.32;;
11514;SDS011;5814;41.936;25.556;2024-03-25T10:14:03;7.25;;;6.75;;
11514;SDS011;5814;41.936;25.556;2024-03-25T10:16:29;8.35;;;7.85;;
11514;SDS011;5814;41.936;25.556;2024-03-25T10:18:54;10.05;;;9.45;;
11514;SDS011;5814;41.936;25.556;2024-03-25T10:21:20;7.20;;;6.72;;
11514;SDS011;5814;41.936;25.556;2024-03-25T10:23:47;6.75;;;6.25;;
11514;SDS011;5814;41.936;25.556;2024-03-25T10:26:30;7.70;;;7.10;;
11514;SDS011;5814;41.936;25.556;2024-03-25T10:29:03;7.78;;;7.03;;
11514;SDS011;5814;41.936;25.556;2024-03-25T10:31:31;8.02;;;7.50;;
11514;SDS011;5814;41.936;25.556;2024-03-25T10:33:57;7.10;;;6.40;;
11514;SDS011;5814;41.936;25.556;2024-03-25T10:36:23;7.25;;;6.70;;
11514;SDS011;5814;41.936;25.556;2024-03-25T10:38:53;6.78;;;6.35;;
11514;SDS011;5814;41.936;25.556;2024-03-25T10:41:20;7.20;;;6.60;;
11514;SDS011;5814;41.936;25.556;2024-03-25T10:43:46;7.18;;;6.82;;
11514;SDS011;5814;41.936;25.556;2024-03-25T10:46:15;9.13;;;8.68;;
11514;SDS011;5814;41.936;25.556;2024-03-25T10:48:43;12.57;;;11.88;;
11514;SDS011;5814;41.936;25.556;2024-03-25T10:51:16;15.57;;;14.68;;
11514;SDS011;5814;41.936;25.556;2024-03-25T10:53:42;15.52;;;14.73;;
11514;SDS011;5814;41.936;25.556;2024-03-25T10:56:08;16.10;;;15.32;;
11514;SDS011;5814;41.936;25.556;2024-03-25T10:58:35;15.23;;;14.48;;
11514;SDS011;5814;41.936;25.556;2024-03-25T11:01:01;13.82;;;13.10;;
11514;SDS011;5814;41.936;25.556;2024-03-25T11:03:27;12.48;;;11.60;;
11514;SDS011;5814;41.936;25.556;2024-03-25T11:05:54;9.50;;;8.90;;
11514;SDS011;5814;41.936;25.556;2024-03-25T11:08:19;7.10;;;6.70;;
11514;SDS011;5814;41.936;25.556;2024-03-25T11:10:45;8.18;;;7.68;;
11514;SDS011;5814;41.936;25.556;2024-03-25T11:13:18;10.00;;;9.50;;
11514;SDS011;5814;41.936;25.556;2024-03-25T11:15:48;12.52;;;11.55;;
11514;SDS011;5814;41.936;25.556;2024-03-25T11:18:15;11.95;;;11.30;;
11514;SDS011;5814;41.936;25.556;2024-03-25T11:20:42;10.38;;;9.88;;
11514;SDS011;5814;41.936;25.556;2024-03-25T11:23:11;10.73;;;10.10;;
11514;SDS011;5814;41.936;25.556;2024-03-25T11:25:38;9.93;;;9.23;;
11514;SDS011;5814;41.936;25.556;2024-03-25T11:28:05;9.35;;;8.95;;
11514;SDS011;5814;41.936;25.556;2024-03-25T11:30:30;14.30;;;13.27;;
11514;SDS011;5814;41.936;25.556;2024-03-25T11:32:56;9.32;;;8.88;;
11514;SDS011;5814;41.936;25.556;2024-03-25T11:35:23;7.50;;;6.90;;
11514;SDS011;5814;41.936;25.556;2024-03-25T11:37:49;7.32;;;6.65;;
11514;SDS011;5814;41.936;25.556;2024-03-25T11:40:18;7.63;;;6.88;;
11514;SDS011;5814;41.936;25.556;2024-03-25T11:42:44;7.10;;;6.80;;
11514;SDS011;5814;41.936;25.556;2024-03-25T11:45:17;7.72;;;7.15;;
11514;SDS011;5814;41.936;25.556;2024-03-25T11:47:45;7.80;;;7.35;;
11514;SDS011;5814;41.936;25.556;2024-03-25T11:50:16;8.25;;;7.30;;
11514;SDS011;5814;41.936;25.556;2024-03-25T11:52:43;9.00;;;8.20;;
11514;SDS011;5814;41.936;25.556;2024-03-25T11:55:09;7.82;;;7.22;;
11514;SDS011;5814;41.936;25.556;2024-03-25T11:57:37;7.50;;;6.90;;
11514;SDS011;5814;41.936;25.556;2024-03-25T12:00:03;7.45;;;7.00;;
11514;SDS011;5814;41.936;25.556;2024-03-25T12:02:36;10.45;;;9.65;;
11514;SDS011;5814;41.936;25.556;2024-03-25T12:05:03;6.68;;;6.18;;
11514;SDS011;5814;41.936;25.556;2024-03-25T12:07:31;7.03;;;6.63;;
11514;SDS011;5814;41.936;25.556;2024-03-25T12:09:58;6.72;;;6.40;;
11514;SDS011;5814;41.936;25.556;2024-03-25T12:12:42;7.50;;;7.20;;
11514;SDS011;5814;41.936;25.556;2024-03-25T12:15:09;9.07;;;8.38;;
11514;SDS011;5814;41.936;25.556;2024-03-25T12:17:35;9.05;;;8.35;;
11514;SDS011;5814;41.936;25.556;2024-03-25T12:22:31;8.43;;;7.93;;
11514;SDS011;5814;41.936;25.556;2024-03-25T12:25:00;8.10;;;7.70;;
11514;SDS011;5814;41.936;25.556;2024-03-25T12:27:28;9.65;;;8.75;;
11514;SDS011;5814;41.936;25.556;2024-03-25T12:30:00;9.32;;;8.73;;
11514;SDS011;5814;41.936;25.556;2024-03-25T12:34:59;6.85;;;6.55;;
11514;SDS011;5814;41.936;25.556;2024-03-25T12:37:27;7.53;;;7.13;;
11514;SDS011;5814;41.936;25.556;2024-03-25T12:39:53;6.85;;;6.50;;
11514;SDS011;5814;41.936;25.556;2024-03-25T12:42:19;7.35;;;6.85;;
11514;SDS011;5814;41.936;25.556;2024-03-25T12:44:44;6.80;;;6.50;;
11514;SDS011;5814;41.936;25.556;2024-03-25T12:47:10;7.50;;;6.90;;
11514;SDS011;5814;41.936;25.556;2024-03-25T12:49:35;7.57;;;7.18;;
11514;SDS011;5814;41.936;25.556;2024-03-25T12:52:03;7.57;;;7.28;;
11514;SDS011;5814;41.936;25.556;2024-03-25T12:54:31;7.88;;;7.47;;
11514;SDS011;5814;41.936;25.556;2024-03-25T12:56:58;7.30;;;7.00;;
11514;SDS011;5814;41.936;25.556;2024-03-25T12:59:23;8.02;;;7.63;;
11514;SDS011;5814;41.936;25.556;2024-03-25T13:01:49;7.50;;;7.10;;
11514;SDS011;5814;41.936;25.556;2024-03-25T13:04:16;9.48;;;8.85;;
11514;SDS011;5814;41.936;25.556;2024-03-25T13:06:42;7.60;;;7.20;;
11514;SDS011;5814;41.936;25.556;2024-03-25T13:09:07;8.30;;;7.80;;
11514;SDS011;5814;41.936;25.556;2024-03-25T13:11:33;6.47;;;6.10;;
11514;SDS011;5814;41.936;25.556;2024-03-25T13:13:59;7.28;;;6.75;;
11514;SDS011;5814;41.936;25.556;2024-03-25T13:16:25;8.15;;;7.57;;
11514;SDS011;5814;41.936;25.556;2024-03-25T13:18:51;7.20;;;6.82;;
11514;SDS011;5814;41.936;25.556;2024-03-25T13:21:16;8.65;;;8.25;;
11514;SDS011;5814;41.936;25.556;2024-03-25T13:23:42;7.88;;;7.38;;
11514;SDS011;5814;41.936;25.556;2024-03-25T13:26:08;8.80;;;8.40;;
11514;SDS011;5814;41.936;25.556;2024-03-25T13:28:34;7.45;;;7.07;;
11514;SDS011;5814;41.936;25.556;2024-03-25T13:30:59;6.28;;;6.05;;
11514;SDS011;5814;41.936;25.556;2024-03-25T13:33:25;15.20;;;8.10;;
11514;SDS011;5814;41.936;25.556;2024-03-25T13:35:50;8.18;;;7.78;;
11514;SDS011;5814;41.936;25.556;2024-03-25T13:38:16;7.90;;;7.40;;
11514;SDS011;5814;41.936;25.556;2024-03-25T13:40:41;7.55;;;7.15;;
11514;SDS011;5814;41.936;25.556;2024-03-25T13:43:07;7.20;;;6.70;;
11514;SDS011;5814;41.936;25.556;2024-03-25T13:45:34;8.88;;;8.25;;
11514;SDS011;5814;41.936;25.556;2024-03-25T13:48:00;7.22;;;6.85;;
11514;SDS011;5814;41.936;25.556;2024-03-25T13:50:25;7.00;;;6.70;;
11514;SDS011;5814;41.936;25.556;2024-03-25T13:52:51;8.05;;;7.65;;
11514;SDS011;5814;41.936;25.556;2024-03-25T13:55:16;8.63;;;7.70;;
11514;SDS011;5814;41.936;25.556;2024-03-25T13:57:42;8.80;;;8.25;;
11514;SDS011;5814;41.936;25.556;2024-03-25T14:00:09;8.25;;;7.55;;
11514;SDS011;5814;41.936;25.556;2024-03-25T14:02:36;8.40;;;7.78;;
11514;SDS011;5814;41.936;25.556;2024-03-25T14:05:04;14.63;;;8.20;;
11514;SDS011;5814;41.936;25.556;2024-03-25T14:07:30;9.40;;;7.65;;
11514;SDS011;5814;41.936;25.556;2024-03-25T14:09:55;7.18;;;6.88;;
11514;SDS011;5814;41.936;25.556;2024-03-25T14:12:21;10.90;;;7.32;;
11514;SDS011;5814;41.936;25.556;2024-03-25T14:14:48;8.18;;;7.65;;
11514;SDS011;5814;41.936;25.556;2024-03-25T14:17:14;10.48;;;7.25;;
11514;SDS011;5814;41.936;25.556;2024-03-25T14:19:39;9.23;;;7.47;;
11514;SDS011;5814;41.936;25.556;2024-03-25T14:22:05;9.18;;;8.20;;
11514;SDS011;5814;41.936;25.556;2024-03-25T14:24:30;11.77;;;10.93;;
11514;SDS011;5814;41.936;25.556;2024-03-25T14:26:56;10.13;;;8.43;;
11514;SDS011;5814;41.936;25.556;2024-03-25T14:29:21;7.57;;;7.00;;
11514;SDS011;5814;41.936;25.556;2024-03-25T14:31:47;9.95;;;7.72;;
11514;SDS011;5814;41.936;25.556;2024-03-25T14:34:12;7.50;;;7.10;;
11514;SDS011;5814;41.936;25.556;2024-03-25T14:36:38;8.07;;;7.47;;
11514;SDS011;5814;41.936;25.556;2024-03-25T14:39:03;11.32;;;7.60;;
11514;SDS011;5814;41.936;25.556;2024-03-25T14:41:37;7.15;;;6.80;;
11514;SDS011;5814;41.936;25.556;2024-03-25T14:44:04;7.80;;;7.22;;
11514;SDS011;5814;41.936;25.556;2024-03-25T14:46:30;7.22;;;6.70;;